Time;durP1;ratioP1;P1;durP2;ratioP2;P2;SDS_P1;SDS_P2;PMS_P1;PMS_P2;Temp;Humidity;BMP_temperature;BMP_pressure;BME280_temperature;BME280_humidity;BME280_pressure;Samples;Min_cycle;Max_cycle;Signal;HPM_P1;HPM_P2
2023/02/10 00:00:33;;;;;;;7.43;2.58;;;;;;;1.51;61.42;102154.59;4997025;28;20062;-48
2023/02/10 00:02:59;;;;;;;10.23;2.88;;;;;;;1.49;60.92;102145.94;4994447;28;20073;-48
2023/02/10 00:05:27;;;;;;;10.48;2.72;;;;;;;1.46;60.85;102153.41;4984240;28;20569;-51
2023/02/10 00:07:53;;;;;;;9.85;3.05;;;;;;;1.43;60.72;102150.63;4969356;28;20073;-49
2023/02/10 00:10:20;;;;;;;9.70;2.67;;;;;;;1.40;61.52;102150.41;4977256;28;20573;-48
2023/02/10 00:12:46;;;;;;;10.77;2.88;;;;;;;1.37;62.07;102139.97;4965424;28;20075;-48
2023/02/10 00:15:13;;;;;;;10.02;2.53;;;;;;;1.36;61.51;102136.56;4971960;28;20070;-49
2023/02/10 00:17:39;;;;;;;7.70;2.65;;;;;;;1.34;61.61;102133.00;4966785;28;20057;-48
2023/02/10 00:20:07;;;;;;;6.60;2.40;;;;;;;1.34;61.92;102127.00;4976915;28;20077;-47
2023/02/10 00:22:34;;;;;;;13.40;2.80;;;;;;;1.32;61.54;102126.91;4970015;28;20051;-48
2023/02/10 00:25:01;;;;;;;9.95;2.70;;;;;;;1.33;61.98;102117.56;4972150;28;20148;-49
2023/02/10 00:27:27;;;;;;;11.60;2.65;;;;;;;1.32;61.57;102115.81;4969734;28;20046;-50
2023/02/10 00:29:54;;;;;;;10.05;2.78;;;;;;;1.32;62.02;102126.03;4959197;28;20054;-50
2023/02/10 00:32:20;;;;;;;14.27;3.10;;;;;;;1.28;61.46;102123.25;4961893;28;20117;-47
2023/02/10 00:34:47;;;;;;;10.23;2.85;;;;;;;1.24;61.64;102108.50;4957265;28;20075;-48
2023/02/10 00:37:14;;;;;;;6.90;2.28;;;;;;;1.20;62.37;102115.84;4956850;28;20985;-47
2023/02/10 00:39:40;;;;;;;9.75;2.92;;;;;;;1.16;62.78;102119.88;4960632;28;20082;-49
2023/02/10 00:42:07;;;;;;;14.55;3.55;;;;;;;1.12;62.52;102107.66;4958507;28;20117;-48
2023/02/10 00:44:33;;;;;;;10.38;3.42;;;;;;;1.11;62.16;102113.53;4955640;28;20109;-48
2023/02/10 00:47:00;;;;;;;9.27;3.00;;;;;;;1.08;61.65;102106.56;4959651;28;20103;-49
2023/02/10 00:49:27;;;;;;;14.23;3.08;;;;;;;1.06;62.64;102108.13;4964100;28;20463;-50
2023/02/10 00:51:53;;;;;;;9.38;3.15;;;;;;;1.04;62.14;102103.72;4958913;28;20054;-47
2023/02/10 00:54:20;;;;;;;8.23;2.60;;;;;;;0.98;62.99;102115.25;4958146;28;20078;-47
2023/02/10 00:56:46;;;;;;;10.48;2.92;;;;;;;0.95;62.07;102109.91;4964121;28;20042;-50
2023/02/10 00:59:15;;;;;;;9.95;3.50;;;;;;;0.94;61.97;102117.50;4961094;28;20082;-47
2023/02/10 01:01:42;;;;;;;9.15;2.83;;;;;;;0.89;63.06;102114.59;4965569;28;20600;-48
2023/02/10 01:04:08;;;;;;;9.57;3.90;;;;;;;0.87;62.82;102113.59;4963701;28;20082;-51
2023/02/10 01:06:35;;;;;;;5.97;2.47;;;;;;;0.84;63.05;102114.28;4966735;28;20125;-47
2023/02/10 01:09:02;;;;;;;12.10;2.50;;;;;;;0.82;62.35;102114.94;4965251;28;20396;-48
2023/02/10 01:11:29;;;;;;;9.40;2.90;;;;;;;0.80;62.79;102121.59;4966578;28;20110;-51
2023/02/10 01:13:55;;;;;;;8.40;3.17;;;;;;;0.73;63.05;102118.63;4963834;28;20059;-47
2023/02/10 01:16:22;;;;;;;11.43;2.78;;;;;;;0.70;62.46;102122.59;4962924;28;20097;-48
2023/02/10 01:18:50;;;;;;;15.10;3.42;;;;;;;0.66;62.92;102118.97;4967412;28;20089;-49
2023/02/10 01:21:20;;;;;;;11.30;3.40;;;;;;;0.64;63.47;102115.41;4967254;28;20047;-49
2023/02/10 01:23:48;;;;;;;11.63;3.25;;;;;;;0.61;63.22;102117.75;4965304;28;20121;-48
2023/02/10 01:26:17;;;;;;;14.15;3.72;;;;;;;0.58;62.91;102122.63;4967536;28;20082;-50
2023/02/10 01:28:45;;;;;;;10.82;3.40;;;;;;;0.57;63.66;102126.84;4964721;28;20042;-48
2023/02/10 01:31:18;;;;;;;11.00;3.25;;;;;;;0.56;62.88;102129.28;4961047;28;20130;-50
2023/02/10 01:33:46;;;;;;;12.25;3.13;;;;;;;0.53;63.12;102129.94;4962997;28;20769;-47
2023/02/10 01:36:17;;;;;;;12.90;3.67;;;;;;;0.53;63.44;102131.63;4976839;28;20129;-47
2023/02/10 01:38:45;;;;;;;8.63;3.08;;;;;;;0.50;63.11;102132.25;4962000;28;20235;-47
2023/02/10 01:41:16;;;;;;;13.68;3.60;;;;;;;0.49;63.52;102136.50;4970776;28;20042;-49
2023/02/10 01:44:06;;;;;;;16.15;3.42;;;;;;;0.45;63.55;102137.06;4963619;28;20050;-47
2023/02/10 01:46:35;;;;;;;6.38;3.00;;;;;;;0.44;62.91;102127.59;4960953;28;20051;-46
2023/02/10 01:49:07;;;;;;;15.43;3.80;;;;;;;0.43;63.90;102133.50;4963863;28;20057;-48
2023/02/10 01:51:40;;;;;;;12.57;3.05;;;;;;;0.41;63.19;102135.06;4964155;28;20130;-49
2023/02/10 01:54:13;;;;;;;15.20;3.17;;;;;;;0.40;63.50;102133.25;4965218;28;20066;-49
2023/02/10 01:56:41;;;;;;;8.60;3.30;;;;;;;0.39;63.79;102134.03;4951916;28;20089;-49
2023/02/10 01:59:08;;;;;;;12.85;3.08;;;;;;;0.38;63.37;102139.94;4961643;28;20505;-48
2023/02/10 02:01:35;;;;;;;9.02;2.65;;;;;;;0.37;63.82;102136.47;4955810;28;20074;-47
2023/02/10 02:04:02;;;;;;;16.33;3.80;;;;;;;0.37;63.71;102140.69;4963562;28;20451;-47
2023/02/10 02:06:29;;;;;;;12.18;3.35;;;;;;;0.37;63.38;102128.84;4964037;28;20081;-48
2023/02/10 02:08:55;;;;;;;12.30;2.92;;;;;;;0.37;64.30;102135.59;4959862;28;20134;-48
2023/02/10 02:11:50;;;;;;;9.02;2.80;;;;;;;0.35;63.55;102129.50;4971011;28;20051;-49
2023/02/10 02:22:48;;;;;;;11.88;2.85;;;;;;;0.36;64.26;102110.88;5003262;28;20423;-47
2023/02/10 02:25:32;;;;;;;8.93;2.85;;;;;;;0.36;64.08;102118.53;4993046;28;20056;-47
2023/02/10 02:33:55;;;;;;;14.70;5.53;;;;;;;0.80;64.35;102098.63;5043416;27;20410;-47
2023/02/10 02:36:29;;;;;;;12.02;4.00;;;;;;;0.53;65.48;102085.72;5018081;28;20045;-47
2023/02/10 02:39:01;;;;;;;13.40;3.42;;;;;;;0.46;65.62;102085.28;5024003;28;20048;-48
2023/02/10 02:41:29;;;;;;;9.73;3.22;;;;;;;0.42;65.76;102075.63;5057272;28;20114;-50
2023/02/10 02:43:58;;;;;;;12.20;2.97;;;;;;;0.42;66.01;102067.97;5065619;28;20053;-47
2023/02/10 02:49:18;;;;;;;9.75;4.07;;;;;;;0.41;65.92;102058.56;5029213;28;20413;-47
2023/02/10 02:52:00;;;;;;;14.57;5.60;;;;;;;0.42;66.30;102065.44;5021673;28;20469;-47
2023/02/10 02:54:40;;;;;;;10.10;4.22;;;;;;;0.44;66.23;102068.09;5021421;28;20046;-47
2023/02/10 02:57:29;;;;;;;14.52;4.10;;;;;;;0.42;66.52;102057.78;5019930;28;20631;-47
2023/02/10 03:02:41;;;;;;;12.25;2.83;;;;;;;0.43;65.98;102082.50;5038051;28;20416;-47
2023/02/10 03:05:09;;;;;;;5.47;2.13;;;;;;;0.43;66.20;102095.25;5019594;28;20050;-48
2023/02/10 03:07:35;;;;;;;7.03;2.35;;;;;;;0.44;65.95;102109.75;5017376;28;20054;-47
2023/02/10 03:10:04;;;;;;;6.97;1.83;;;;;;;0.44;66.44;102103.78;5011650;28;20132;-48
2023/02/10 03:12:31;;;;;;;9.82;3.65;;;;;;;0.40;65.91;102077.16;5009076;28;20127;-49
2023/02/10 03:14:57;;;;;;;6.50;2.72;;;;;;;0.37;65.48;102067.66;5012874;28;20058;-48
2023/02/10 03:17:24;;;;;;;5.75;2.13;;;;;;;0.33;65.34;102054.56;5008855;28;20049;-48
2023/02/10 03:19:50;;;;;;;9.80;2.17;;;;;;;0.32;65.56;102063.00;5013641;28;20073;-47
2023/02/10 03:22:17;;;;;;;9.77;2.38;;;;;;;0.32;66.12;102063.00;5009521;28;20130;-47
2023/02/10 03:24:44;;;;;;;7.85;2.05;;;;;;;0.32;66.60;102063.00;5005072;28;20081;-49
2023/02/10 03:27:10;;;;;;;13.38;2.78;;;;;;;0.34;66.51;102061.47;5015791;28;20073;-47
2023/02/10 03:29:37;;;;;;;9.60;3.15;;;;;;;0.34;66.57;102053.81;5015667;28;20092;-46
2023/02/10 03:32:05;;;;;;;9.15;2.38;;;;;;;0.33;66.22;102049.47;5011417;28;20129;-46
2023/02/10 03:34:32;;;;;;;7.22;2.85;;;;;;;0.32;66.26;102046.03;5016668;28;20533;-48
2023/02/10 03:36:58;;;;;;;8.23;2.70;;;;;;;0.32;66.33;102042.59;5018102;28;20068;-47
2023/02/10 03:39:25;;;;;;;13.65;2.85;;;;;;;0.31;66.23;102045.94;5011633;28;20073;-47
2023/02/10 03:41:53;;;;;;;6.07;2.38;;;;;;;0.31;66.15;102038.28;5012348;28;20080;-48
2023/02/10 03:44:20;;;;;;;9.52;2.40;;;;;;;0.29;66.13;102037.28;5011054;28;20508;-48
2023/02/10 03:46:46;;;;;;;12.93;2.28;;;;;;;0.27;66.21;102018.44;5010372;28;20697;-48
2023/02/10 03:49:13;;;;;;;7.50;2.10;;;;;;;0.27;66.43;102018.44;5010448;28;20436;-48
2023/02/10 03:51:39;;;;;;;12.77;2.25;;;;;;;0.27;66.74;102015.91;5018300;28;20103;-47
2023/02/10 03:54:06;;;;;;;4.97;2.03;;;;;;;0.24;66.32;102009.78;5013662;28;20068;-48
2023/02/10 03:56:33;;;;;;;11.43;2.58;;;;;;;0.25;67.00;102019.25;5012272;28;20077;-48
2023/02/10 03:59:01;;;;;;;12.70;2.03;;;;;;;0.26;67.22;102017.56;5010595;28;20509;-48
2023/02/10 04:01:27;;;;;;;9.05;2.15;;;;;;;0.25;66.72;102026.88;5008076;28;20077;-48
2023/02/10 04:03:54;;;;;;;11.95;1.95;;;;;;;0.25;66.81;102036.19;5017637;28;20573;-48
2023/02/10 04:06:21;;;;;;;9.80;2.10;;;;;;;0.24;66.42;102035.28;5009999;28;20148;-48
2023/02/10 04:08:48;;;;;;;9.68;2.20;;;;;;;0.24;67.31;102035.28;5010391;28;20042;-50
2023/02/10 04:11:15;;;;;;;8.35;2.53;;;;;;;0.26;66.52;102035.41;5011468;28;20087;-48
2023/02/10 04:13:42;;;;;;;10.27;2.22;;;;;;;0.24;66.75;102040.38;4994923;28;20065;-49
2023/02/10 04:16:11;;;;;;;8.68;1.75;;;;;;;0.24;66.74;102045.47;4998699;28;20076;-47
2023/02/10 04:18:38;;;;;;;5.53;1.50;;;;;;;0.23;67.19;102058.09;5000568;28;20049;-48
2023/02/10 04:21:07;;;;;;;8.68;2.28;;;;;;;0.20;66.68;102046.03;5000945;28;20084;-47
2023/02/10 04:23:34;;;;;;;7.15;1.88;;;;;;;0.17;66.93;102043.25;4995266;28;20069;-47
2023/02/10 04:26:02;;;;;;;6.40;2.33;;;;;;;0.14;66.73;102031.97;4999885;28;20727;-49
2023/02/10 04:28:28;;;;;;;7.78;2.10;;;;;;;0.10;67.00;102031.75;4992001;28;20062;-49
2023/02/10 04:30:59;;;;;;;6.82;2.05;;;;;;;0.09;66.66;102034.19;5001010;28;20038;-48
2023/02/10 04:33:25;;;;;;;5.60;2.30;;;;;;;0.08;66.71;102042.63;5001750;28;20064;-51
2023/02/10 04:35:53;;;;;;;7.55;1.80;;;;;;;0.06;66.84;102033.94;5001132;28;20053;-49
2023/02/10 04:38:21;;;;;;;9.02;1.67;;;;;;;0.06;67.24;102044.16;4999567;28;20078;-47
2023/02/10 04:40:47;;;;;;;8.13;2.20;;;;;;;0.06;66.71;102052.69;4994531;28;20046;-48
2023/02/10 04:43:14;;;;;;;9.48;2.20;;;;;;;0.06;67.05;102044.16;4994647;28;20124;-49
2023/02/10 04:45:41;;;;;;;8.45;1.90;;;;;;;0.05;67.00;102039.84;4997487;28;20133;-48
2023/02/10 04:48:08;;;;;;;9.13;2.22;;;;;;;0.05;66.82;102034.75;4997902;28;20049;-48
2023/02/10 04:50:36;;;;;;;7.75;2.42;;;;;;;0.03;68.03;102033.75;4998702;28;20557;-51
2023/02/10 04:53:03;;;;;;;5.35;1.88;;;;;;;0.02;67.40;102042.16;4998236;28;20058;-48
2023/02/10 04:55:30;;;;;;;8.35;1.75;;;;;;;0.01;67.56;102036.19;5000750;28;20105;-47
2023/02/10 04:57:57;;;;;;;6.82;2.63;;;;;;;0.01;67.46;102025.09;4993010;28;20132;-48
2023/02/10 05:00:24;;;;;;;12.07;2.58;;;;;;;-0.01;67.65;102028.44;4994827;28;20050;-49
2023/02/10 05:02:50;;;;;;;7.43;2.45;;;;;;;-0.02;67.56;102026.66;4997269;28;20047;-52
2023/02/10 05:05:17;;;;;;;5.22;1.77;;;;;;;-0.01;67.41;102033.53;5002162;28;20449;-50
2023/02/10 05:07:44;;;;;;;8.98;2.08;;;;;;;-0.01;67.53;102028.44;4999155;28;20104;-50
2023/02/10 05:10:10;;;;;;;8.88;2.63;;;;;;;0.00;67.56;102014.03;4994168;28;20069;-48
2023/02/10 05:12:37;;;;;;;5.63;2.03;;;;;;;-0.02;67.24;102021.56;4999368;28;20498;-47
2023/02/10 05:15:04;;;;;;;7.35;2.55;;;;;;;-0.01;68.19;102013.16;4996210;28;21666;-49
2023/02/10 05:17:30;;;;;;;5.68;2.17;;;;;;;0.00;67.79;102019.13;4997590;28;20445;-48
2023/02/10 05:19:57;;;;;;;7.45;1.52;;;;;;;-0.01;67.65;102028.44;5002434;28;20085;-48
2023/02/10 05:22:29;;;;;;;8.05;2.35;;;;;;;-0.01;67.66;102028.44;5017195;28;20498;-48
2023/02/10 05:24:56;;;;;;;7.50;2.15;;;;;;;-0.01;67.41;102027.53;5017974;28;20041;-49
2023/02/10 05:27:24;;;;;;;6.53;2.22;;;;;;;-0.03;67.73;102034.19;5015674;28;20058;-51
2023/02/10 05:29:50;;;;;;;5.10;1.40;;;;;;;-0.04;67.89;102030.75;5010529;28;20072;-51
2023/02/10 05:32:17;;;;;;;6.88;2.08;;;;;;;-0.03;68.48;102035.06;5019411;28;20068;-47
2023/02/10 05:34:44;;;;;;;5.07;1.50;;;;;;;-0.04;67.45;102043.50;5020878;28;20559;-52
2023/02/10 05:37:10;;;;;;;9.65;2.25;;;;;;;-0.04;68.05;102047.69;5014437;28;20053;-48
2023/02/10 05:39:37;;;;;;;7.00;2.05;;;;;;;-0.04;67.61;102052.78;5016236;28;20107;-48
2023/02/10 05:42:03;;;;;;;9.57;2.67;;;;;;;-0.04;68.44;102042.59;5021910;28;20073;-48
2023/02/10 05:44:31;;;;;;;9.80;1.58;;;;;;;-0.03;67.62;102044.38;5017022;28;20057;-49
2023/02/10 05:46:58;;;;;;;4.35;2.10;;;;;;;-0.03;68.00;102047.81;5021099;28;20045;-49
2023/02/10 05:49:25;;;;;;;12.90;2.15;;;;;;;-0.01;67.96;102048.81;5015473;28;20080;-49
2023/02/10 05:51:52;;;;;;;5.93;1.42;;;;;;;0.03;68.32;102041.41;5015759;28;20129;-50
2023/02/10 05:54:19;;;;;;;10.70;2.08;;;;;;;0.05;68.56;102039.84;5022198;28;20058;-50
2023/02/10 05:56:46;;;;;;;4.85;1.48;;;;;;;0.07;68.26;102041.72;5021851;28;20041;-48
2023/02/10 05:59:14;;;;;;;5.47;1.90;;;;;;;0.11;68.30;102047.94;5016864;28;20041;-49
2023/02/10 06:01:42;;;;;;;6.13;1.73;;;;;;;0.12;68.45;102057.34;5018175;28;20590;-48
2023/02/10 06:04:08;;;;;;;13.23;2.15;;;;;;;0.15;69.21;102059.22;5016120;28;20050;-50
2023/02/10 06:06:35;;;;;;;6.25;1.67;;;;;;;0.16;68.61;102061.03;5014953;28;20539;-49
2023/02/10 06:09:03;;;;;;;7.40;1.95;;;;;;;0.18;69.05;102055.25;5019694;28;20643;-49
2023/02/10 06:11:29;;;;;;;6.40;1.42;;;;;;;0.21;68.43;102055.44;5014352;28;20059;-48
2023/02/10 06:13:56;;;;;;;9.35;1.73;;;;;;;0.24;69.14;102050.56;5015617;28;20076;-51
2023/02/10 06:16:23;;;;;;;7.93;1.58;;;;;;;0.24;68.86;102048.03;5015415;28;20081;-48
2023/02/10 06:18:50;;;;;;;6.47;1.20;;;;;;;0.27;68.80;102051.59;5020112;28;20048;-49
2023/02/10 06:21:17;;;;;;;3.78;1.30;;;;;;;0.28;68.65;102040.59;5020026;28;20122;-48
2023/02/10 06:23:43;;;;;;;5.28;1.75;;;;;;;0.29;69.48;102037.28;5016071;28;20059;-50
2023/02/10 06:26:10;;;;;;;10.82;1.75;;;;;;;0.31;69.01;102044.28;5016619;28;20123;-48
2023/02/10 06:28:37;;;;;;;8.82;1.52;;;;;;;0.32;69.40;102037.50;5017134;28;20337;-49
2023/02/10 06:31:03;;;;;;;5.80;1.52;;;;;;;0.34;69.65;102031.72;4999845;28;20761;-51
2023/02/10 06:33:30;;;;;;;8.55;1.63;;;;;;;0.33;69.71;102029.97;5001862;28;20084;-49
2023/02/10 06:35:57;;;;;;;6.22;1.20;;;;;;;0.34;69.35;102020.66;5000738;28;20076;-48
2023/02/10 06:38:23;;;;;;;5.40;1.10;;;;;;;0.36;69.92;102016.53;5000281;28;20049;-47
2023/02/10 06:40:50;;;;;;;5.50;1.27;;;;;;;0.39;70.13;102019.31;4998995;28;20448;-49
2023/02/10 06:43:17;;;;;;;5.75;1.52;;;;;;;0.40;70.05;102015.13;4998098;28;20078;-48
2023/02/10 06:45:43;;;;;;;3.63;1.13;;;;;;;0.45;69.64;102021.41;4997633;28;20069;-51
2023/02/10 06:48:10;;;;;;;9.68;1.73;;;;;;;0.46;69.70;102016.44;4998639;28;20142;-51
2023/02/10 06:50:37;;;;;;;3.28;1.73;;;;;;;0.47;69.34;102009.69;5000057;28;20045;-49
2023/02/10 06:53:04;;;;;;;7.15;1.73;;;;;;;0.47;69.80;102013.09;5000009;28;20048;-48
2023/02/10 06:55:31;;;;;;;7.88;1.63;;;;;;;0.46;69.20;102016.44;5001188;28;20081;-50
2023/02/10 06:57:59;;;;;;;8.32;1.55;;;;;;;0.47;69.59;102023.28;4998105;28;20112;-49
2023/02/10 07:00:26;;;;;;;6.85;1.05;;;;;;;0.46;69.61;102021.53;4995923;28;20179;-48
2023/02/10 07:02:52;;;;;;;8.20;1.38;;;;;;;0.47;69.46;102012.22;4995317;28;20233;-48
2023/02/10 07:05:19;;;;;;;5.78;1.40;;;;;;;0.45;69.80;102022.31;4993700;28;20533;-48
2023/02/10 07:07:46;;;;;;;4.60;1.33;;;;;;;0.46;69.41;102036.81;4996251;28;20068;-48
2023/02/10 07:10:13;;;;;;;6.25;1.95;;;;;;;0.45;69.59;102027.41;4993847;28;22042;-48
2023/02/10 07:12:39;;;;;;;5.78;1.17;;;;;;;0.45;69.47;102035.06;4994361;28;20104;-49
2023/02/10 07:15:06;;;;;;;4.90;1.55;;;;;;;0.45;69.57;102034.16;4996669;28;20069;-50
2023/02/10 07:17:33;;;;;;;6.70;1.13;;;;;;;0.45;69.90;102035.06;4996897;28;20055;-48
2023/02/10 07:20:00;;;;;;;4.20;1.48;;;;;;;0.45;69.82;102040.16;4996665;28;21913;-50
2023/02/10 07:22:26;;;;;;;6.97;1.23;;;;;;;0.46;69.48;102041.94;4998768;28;20136;-49
2023/02/10 07:24:53;;;;;;;4.38;1.13;;;;;;;0.45;70.14;102044.38;4991399;28;20046;-51
2023/02/10 07:27:20;;;;;;;6.78;1.25;;;;;;;0.46;69.91;102039.38;4993267;28;20080;-50
2023/02/10 07:29:47;;;;;;;5.07;1.30;;;;;;;0.47;69.75;102051.34;4996752;28;20049;-49
2023/02/10 07:32:13;;;;;;;9.70;1.52;;;;;;;0.47;70.12;102053.88;4999085;28;20049;-50
2023/02/10 07:34:40;;;;;;;12.98;1.92;;;;;;;0.48;69.74;102065.84;4989347;28;20074;-48
2023/02/10 07:37:08;;;;;;;9.70;1.50;;;;;;;0.53;69.84;102065.31;4992322;28;20131;-53
2023/02/10 07:39:35;;;;;;;6.63;1.63;;;;;;;0.56;69.90;102068.06;4997176;28;20172;-49
2023/02/10 07:42:02;;;;;;;6.05;1.85;;;;;;;0.59;69.54;102063.19;5001839;28;20094;-50
2023/02/10 07:44:28;;;;;;;6.78;1.35;;;;;;;0.60;69.54;102049.66;5001104;28;20087;-49
2023/02/10 07:46:55;;;;;;;4.30;1.63;;;;;;;0.61;70.10;102041.25;5001566;28;20105;-48
2023/02/10 07:49:22;;;;;;;5.05;1.20;;;;;;;0.61;70.43;102036.16;5001530;28;20108;-49
2023/02/10 07:51:48;;;;;;;3.60;1.15;;;;;;;0.63;70.16;102024.38;5005359;28;20163;-50
2023/02/10 07:54:15;;;;;;;6.30;1.38;;;;;;;0.64;70.60;102021.94;4996312;28;20072;-49
2023/02/10 07:56:44;;;;;;;5.00;1.58;;;;;;;0.67;70.05;102021.25;4993361;28;20054;-49
2023/02/10 07:59:11;;;;;;;2.92;0.80;;;;;;;0.69;70.51;102019.72;4995995;28;20050;-49
2023/02/10 08:01:41;;;;;;;9.30;1.85;;;;;;;0.70;71.09;102026.56;4996145;28;20148;-50
2023/02/10 08:04:09;;;;;;;4.97;1.15;;;;;;;0.71;71.63;102023.22;4998236;28;20069;-51
2023/02/10 08:06:36;;;;;;;6.07;1.33;;;;;;;0.74;71.56;102023.44;5001998;28;20074;-50
2023/02/10 08:09:03;;;;;;;7.35;0.73;;;;;;;0.84;70.72;102029.22;5005683;28;20133;-48
2023/02/10 08:11:30;;;;;;;9.57;1.45;;;;;;;0.89;70.64;102025.31;4998678;28;20149;-50
2023/02/10 08:14:00;;;;;;;8.38;1.10;;;;;;;1.00;70.14;102028.56;4993577;28;20064;-48
2023/02/10 08:16:26;;;;;;;5.93;1.08;;;;;;;1.12;70.49;102023.44;4994499;28;20141;-50
2023/02/10 08:18:53;;;;;;;5.22;0.82;;;;;;;1.24;70.42;102016.59;4995585;28;20092;-50
2023/02/10 08:21:19;;;;;;;6.80;1.40;;;;;;;1.44;69.48;102013.59;4999203;28;20096;-50
2023/02/10 08:23:46;;;;;;;4.93;0.77;;;;;;;1.62;69.05;102025.03;4997108;28;20049;-48
2023/02/10 08:26:13;;;;;;;9.45;1.80;;;;;;;1.75;69.01;102036.94;4995902;28;20053;-47
2023/02/10 08:28:40;;;;;;;7.25;1.30;;;;;;;1.86;68.90;102041.88;4999578;28;20548;-48
2023/02/10 08:31:08;;;;;;;9.30;1.65;;;;;;;1.95;69.53;102045.03;4999328;28;20081;-51
2023/02/10 08:33:36;;;;;;;8.57;2.35;;;;;;;2.04;68.94;102060.09;4995067;28;20062;-50
2023/02/10 08:36:14;;;;;;;15.25;3.13;;;;;;;2.24;68.57;102063.03;4998357;28;20049;-51
2023/02/10 08:38:41;;;;;;;8.68;2.83;;;;;;;2.61;68.97;102064.47;4992524;28;20077;-47
2023/02/10 08:41:08;;;;;;;3.47;1.25;;;;;;;3.09;68.05;102069.97;4996377;28;20085;-48
2023/02/10 08:43:35;;;;;;;3.28;0.90;;;;;;;3.50;68.30;102070.69;4988261;28;20054;-52
2023/02/10 08:46:03;;;;;;;7.05;2.00;;;;;;;3.93;67.40;102076.53;5001014;28;20149;-51
2023/02/10 08:48:30;;;;;;;9.50;2.13;;;;;;;4.44;67.05;102075.94;5004417;28;20069;-48
2023/02/10 08:50:58;;;;;;;5.03;1.00;;;;;;;5.17;66.52;102078.94;4996691;28;20054;-49
2023/02/10 08:53:24;;;;;;;4.05;1.15;;;;;;;5.74;65.22;102068.13;4999538;28;20046;-49
2023/02/10 08:55:57;;;;;;;7.03;0.82;;;;;;;6.04;64.47;102080.72;5004895;28;20657;-50
2023/02/10 08:58:26;;;;;;;12.13;1.42;;;;;;;6.06;64.19;102089.41;4998023;28;20080;-50
2023/02/10 09:00:53;;;;;;;7.47;0.98;;;;;;;5.98;63.23;102094.13;5001604;28;20498;-48
2023/02/10 09:03:20;;;;;;;4.60;1.20;;;;;;;5.87;64.16;102096.19;5006197;28;20087;-50
2023/02/10 09:05:48;;;;;;;5.53;1.02;;;;;;;5.84;63.25;102090.88;5002282;28;20046;-49
2023/02/10 09:08:16;;;;;;;6.15;0.95;;;;;;;5.77;62.97;102089.72;4997620;28;20073;-48
2023/02/10 09:10:45;;;;;;;9.48;1.75;;;;;;;5.71;63.44;102093.66;4995474;28;20064;-49
2023/02/10 09:13:12;;;;;;;4.35;1.55;;;;;;;5.98;63.43;102095.84;4998612;28;20042;-52
2023/02/10 09:15:41;;;;;;;5.47;1.48;;;;;;;6.56;63.75;102094.34;5003011;28;20137;-53
2023/02/10 09:18:09;;;;;;;4.75;1.23;;;;;;;7.30;63.27;102098.50;4999144;28;20413;-51
2023/02/10 09:20:35;;;;;;;7.70;1.25;;;;;;;8.16;63.10;102087.44;4996669;28;20057;-53
2023/02/10 09:23:02;;;;;;;8.75;1.20;;;;;;;9.18;62.39;102084.38;4998717;28;20494;-55
2023/02/10 09:25:30;;;;;;;10.13;1.70;;;;;;;10.14;61.00;102091.03;5000065;28;20056;-52
2023/02/10 09:27:57;;;;;;;10.80;2.45;;;;;;;10.93;58.92;102084.78;5000832;28;20050;-54
2023/02/10 09:30:25;;;;;;;6.93;1.25;;;;;;;11.30;58.22;102088.41;4999100;28;20056;-49
2023/02/10 09:32:52;;;;;;;10.35;2.00;;;;;;;11.29;56.75;102094.41;5001116;28;20041;-54
2023/02/10 09:35:19;;;;;;;9.30;2.20;;;;;;;11.08;56.03;102099.03;4998847;28;20050;-53
2023/02/10 09:37:46;;;;;;;7.00;1.42;;;;;;;10.83;55.54;102087.94;5003406;28;20134;-53
2023/02/10 09:40:27;;;;;;;6.50;1.95;;;;;;;10.41;56.07;102074.59;5007985;28;20041;-52
2023/02/10 09:45:37;;;;;;;4.53;2.75;;;;;;;10.22;57.06;102079.22;5017221;28;20397;-53
2023/02/10 09:48:21;;;;;;;6.65;2.35;;;;;;;10.52;56.54;102078.44;4962036;28;20054;-51
2023/02/10 09:53:30;;;;;;;7.45;1.58;;;;;;;9.93;55.50;102047.22;5048808;27;20727;-54
2023/02/10 09:56:02;;;;;;;12.13;1.40;;;;;;;9.41;55.83;102040.34;5017581;28;20057;-55
2023/02/10 09:58:48;;;;;;;6.78;1.27;;;;;;;8.93;56.62;102043.84;5020557;28;20674;-52
2023/02/10 10:01:29;;;;;;;6.35;1.05;;;;;;;8.59;56.07;102040.91;5019948;28;20096;-53
2023/02/10 10:04:01;;;;;;;3.22;0.98;;;;;;;8.21;57.71;102034.28;5012830;28;20127;-52
2023/02/10 10:06:30;;;;;;;9.52;1.15;;;;;;;8.00;57.82;102033.44;5016001;28;20053;-49
2023/02/10 10:11:44;;;;;;;8.13;1.52;;;;;;;7.55;58.57;102042.81;5051787;27;20738;-52
2023/02/10 10:17:24;;;;;;;5.18;1.20;;;;;;;7.14;59.10;102046.28;5000048;28;20934;-51
2023/02/10 10:20:30;;;;;;;10.23;1.77;;;;;;;7.01;59.59;102057.72;5007212;28;20141;-51
2023/02/10 10:26:12;;;;;;;6.95;1.75;;;;;;;6.77;59.52;102047.22;5014249;27;20437;-52
2023/02/10 10:28:51;;;;;;;6.82;1.80;;;;;;;6.61;59.94;102043.94;4996155;28;20101;-50
2023/02/10 10:31:23;;;;;;;11.02;2.40;;;;;;;6.51;59.33;102044.31;4993468;28;20573;-54
2023/02/10 10:33:56;;;;;;;9.82;4.40;;;;;;;6.40;59.54;102034.41;4996300;28;20405;-50
2023/02/10 10:36:32;;;;;;;8.23;2.70;;;;;;;6.31;59.76;102026.25;4999023;28;20054;-53
2023/02/10 10:39:09;;;;;;;7.72;3.42;;;;;;;6.27;59.91;102034.63;4990629;28;20486;-49
2023/02/10 10:41:37;;;;;;;10.25;2.90;;;;;;;6.24;60.75;102029.34;4999551;28;20137;-51
2023/02/10 10:44:04;;;;;;;12.57;2.83;;;;;;;6.24;60.61;102027.66;4988452;28;20497;-53
2023/02/10 10:49:08;;;;;;;7.20;2.67;;;;;;;6.22;61.24;102025.84;5034085;28;20398;-54
2023/02/10 10:51:36;;;;;;;12.73;3.13;;;;;;;6.17;61.23;102023.91;5021428;28;20069;-50
2023/02/10 10:54:05;;;;;;;5.35;1.98;;;;;;;6.14;61.54;102034.06;5022707;28;20113;-53
2023/02/10 11:01:52;;;;;;;7.85;1.67;;;;;;;6.38;61.37;102033.44;5089068;27;20587;-52
2023/02/10 11:04:23;;;;;;;8.05;2.60;;;;;;;6.34;60.89;102041.84;5065341;27;20260;-52
2023/02/10 11:06:53;;;;;;;6.15;2.92;;;;;;;6.37;61.71;102042.00;5067232;28;20036;-54
2023/02/10 11:14:45;;;;;;;7.15;3.53;;;;;;;6.46;61.25;102035.50;5048240;28;20746;-52
2023/02/10 11:17:35;;;;;;;9.10;2.70;;;;;;;6.48;61.48;102033.91;5013222;28;20093;-51
2023/02/10 11:20:24;;;;;;;7.22;2.78;;;;;;;6.51;61.77;102026.28;4999994;28;20124;-55
2023/02/10 11:23:03;;;;;;;9.48;3.13;;;;;;;6.52;60.88;102021.22;5003095;28;20046;-55
2023/02/10 11:25:33;;;;;;;7.32;2.95;;;;;;;6.55;62.20;102025.63;5003169;28;20092;-54
2023/02/10 11:28:02;;;;;;;11.38;3.55;;;;;;;6.54;61.47;102019.59;5001203;28;20069;-53
2023/02/10 11:30:34;;;;;;;9.68;3.53;;;;;;;6.57;62.01;102024.00;5000998;28;20129;-53
2023/02/10 11:33:03;;;;;;;9.02;3.30;;;;;;;6.56;62.32;102019.69;5006308;28;20073;-54
2023/02/10 11:35:31;;;;;;;7.70;3.90;;;;;;;6.52;62.38;102021.22;5020525;28;20041;-53
2023/02/10 11:38:04;;;;;;;5.82;2.85;;;;;;;6.57;61.26;102018.84;5020051;28;20050;-52
2023/02/10 11:40:49;;;;;;;8.18;2.90;;;;;;;6.60;61.56;102018.09;5015960;28;20059;-53
2023/02/10 11:43:17;;;;;;;7.68;3.22;;;;;;;6.67;62.57;102015.00;5019200;28;20069;-51
2023/02/10 11:45:54;;;;;;;7.75;3.38;;;;;;;6.71;61.49;102016.00;5015592;28;20053;-54
2023/02/10 11:48:25;;;;;;;12.95;3.50;;;;;;;6.80;62.25;102026.75;5018961;28;20080;-55
2023/02/10 11:51:14;;;;;;;8.73;2.85;;;;;;;6.84;62.37;102018.34;5019165;28;20095;-56
2023/02/10 11:53:43;;;;;;;7.78;3.20;;;;;;;6.95;61.32;102011.06;5018912;28;20080;-56
2023/02/10 12:02:00;;;;;;;13.07;5.18;;;;;;;7.42;61.87;102019.09;5067598;27;20399;-54
2023/02/10 12:15:43;;;;;;;10.15;3.85;;;;;;;7.41;62.68;102024.19;5049971;28;20405;-53
2023/02/10 12:18:45;;;;;;;8.63;4.10;;;;;;;7.43;62.36;102018.28;5007684;28;20552;-55
2023/02/10 12:21:39;;;;;;;9.90;3.90;;;;;;;7.50;61.74;102021.13;5019647;28;20046;-53
2023/02/10 12:24:26;;;;;;;11.63;3.55;;;;;;;7.58;61.55;102024.91;5015168;28;20443;-53
2023/02/10 12:27:03;;;;;;;10.38;3.17;;;;;;;7.65;62.91;102018.28;5036182;28;20533;-54
2023/02/10 12:29:59;;;;;;;15.07;4.35;;;;;;;7.65;62.50;102021.75;5018364;28;20069;-54
2023/02/10 12:41:03;;;;;;;25.63;7.28;;;;;;;8.03;62.04;102010.31;5016446;27;20414;-53
2023/02/10 12:49:02;;;;;;;11.63;3.70;;;;;;;8.07;62.39;101991.59;5057077;28;20398;-54
2023/02/10 12:52:02;;;;;;;12.75;4.90;;;;;;;8.17;61.84;101991.09;5036044;28;20132;-56
2023/02/10 12:54:52;;;;;;;14.57;4.53;;;;;;;8.22;62.31;101984.44;5039997;28;20053;-55
2023/02/10 12:57:27;;;;;;;11.90;3.63;;;;;;;8.34;62.28;101972.78;5036894;28;20099;-57